sensor_id;sensor_type;location;lat;lon;timestamp;P1;durP1;ratioP1;P2;durP2;ratioP2
66870;SDS011;53780;44.998;9.926;2023-08-12T00:01:13;9.02;;;6.70;;
66870;SDS011;53780;44.998;9.926;2023-08-12T00:04:17;9.25;;;6.10;;
66870;SDS011;53780;44.998;9.926;2023-08-12T00:07:20;9.87;;;6.60;;
66870;SDS011;53780;44.998;9.926;2023-08-12T00:10:24;10.63;;;6.13;;
66870;SDS011;53780;44.998;9.926;2023-08-12T00:13:27;11.40;;;6.65;;
66870;SDS011;53780;44.998;9.926;2023-08-12T00:16:32;10.15;;;6.65;;
66870;SDS011;53780;44.998;9.926;2023-08-12T00:19:35;12.50;;;6.85;;
66870;SDS011;53780;44.998;9.926;2023-08-12T00:22:39;15.07;;;6.90;;
66870;SDS011;53780;44.998;9.926;2023-08-12T00:25:44;11.55;;;7.30;;
66870;SDS011;53780;44.998;9.926;2023-08-12T00:28:48;10.80;;;6.68;;
66870;SDS011;53780;44.998;9.926;2023-08-12T00:31:53;9.10;;;6.20;;
66870;SDS011;53780;44.998;9.926;2023-08-12T00:34:57;10.25;;;6.28;;
66870;SDS011;53780;44.998;9.926;2023-08-12T00:38:01;10.60;;;5.60;;
66870;SDS011;53780;44.998;9.926;2023-08-12T00:41:05;13.45;;;6.20;;
66870;SDS011;53780;44.998;9.926;2023-08-12T00:44:09;8.63;;;6.00;;
66870;SDS011;53780;44.998;9.926;2023-08-12T00:47:13;9.93;;;6.55;;
66870;SDS011;53780;44.998;9.926;2023-08-12T00:50:18;10.30;;;6.47;;
66870;SDS011;53780;44.998;9.926;2023-08-12T00:53:22;10.20;;;6.53;;
66870;SDS011;53780;44.998;9.926;2023-08-12T00:56:26;13.00;;;7.15;;
66870;SDS011;53780;44.998;9.926;2023-08-12T00:59:30;10.25;;;7.20;;
66870;SDS011;53780;44.998;9.926;2023-08-12T01:02:35;12.60;;;7.30;;
66870;SDS011;53780;44.998;9.926;2023-08-12T01:05:41;11.18;;;7.25;;
66870;SDS011;53780;44.998;9.926;2023-08-12T01:08:46;12.43;;;7.53;;
66870;SDS011;53780;44.998;9.926;2023-08-12T01:12:12;10.15;;;7.47;;
66870;SDS011;53780;44.998;9.926;2023-08-12T01:15:23;13.25;;;7.10;;
66870;SDS011;53780;44.998;9.926;2023-08-12T01:18:29;9.85;;;7.10;;
66870;SDS011;53780;44.998;9.926;2023-08-12T01:21:33;12.05;;;7.30;;
66870;SDS011;53780;44.998;9.926;2023-08-12T01:24:40;11.97;;;7.17;;
66870;SDS011;53780;44.998;9.926;2023-08-12T01:27:45;14.80;;;7.50;;
66870;SDS011;53780;44.998;9.926;2023-08-12T01:30:56;10.95;;;7.07;;
66870;SDS011;53780;44.998;9.926;2023-08-12T01:34:05;9.38;;;6.60;;
66870;SDS011;53780;44.998;9.926;2023-08-12T01:37:24;10.27;;;7.00;;
66870;SDS011;53780;44.998;9.926;2023-08-12T01:40:31;10.30;;;7.10;;
66870;SDS011;53780;44.998;9.926;2023-08-12T01:43:37;12.35;;;7.05;;
66870;SDS011;53780;44.998;9.926;2023-08-12T01:46:43;13.02;;;7.97;;
66870;SDS011;53780;44.998;9.926;2023-08-12T01:49:47;11.88;;;8.70;;
66870;SDS011;53780;44.998;9.926;2023-08-12T01:52:51;13.50;;;8.55;;
66870;SDS011;53780;44.998;9.926;2023-08-12T01:55:55;13.90;;;9.23;;
66870;SDS011;53780;44.998;9.926;2023-08-12T01:58:59;16.45;;;9.50;;
66870;SDS011;53780;44.998;9.926;2023-08-12T02:02:03;14.88;;;9.85;;
66870;SDS011;53780;44.998;9.926;2023-08-12T02:05:07;15.40;;;10.13;;
66870;SDS011;53780;44.998;9.926;2023-08-12T02:08:11;13.65;;;9.77;;
66870;SDS011;53780;44.998;9.926;2023-08-12T02:11:16;16.77;;;10.13;;
66870;SDS011;53780;44.998;9.926;2023-08-12T02:14:20;15.60;;;10.10;;
66870;SDS011;53780;44.998;9.926;2023-08-12T02:17:24;18.90;;;11.35;;
66870;SDS011;53780;44.998;9.926;2023-08-12T02:20:29;14.40;;;10.88;;
66870;SDS011;53780;44.998;9.926;2023-08-12T02:23:33;18.95;;;12.07;;
66870;SDS011;53780;44.998;9.926;2023-08-12T02:26:37;17.67;;;11.77;;
66870;SDS011;53780;44.998;9.926;2023-08-12T02:29:41;16.45;;;11.45;;
66870;SDS011;53780;44.998;9.926;2023-08-12T02:32:45;21.05;;;12.50;;
66870;SDS011;53780;44.998;9.926;2023-08-12T02:35:52;17.38;;;12.07;;
66870;SDS011;53780;44.998;9.926;2023-08-12T02:38:57;18.35;;;12.10;;
66870;SDS011;53780;44.998;9.926;2023-08-12T02:42:00;17.50;;;12.03;;
66870;SDS011;53780;44.998;9.926;2023-08-12T02:45:04;17.60;;;12.15;;
66870;SDS011;53780;44.998;9.926;2023-08-12T02:48:10;18.35;;;11.77;;
66870;SDS011;53780;44.998;9.926;2023-08-12T02:51:14;16.88;;;11.93;;
66870;SDS011;53780;44.998;9.926;2023-08-12T02:54:18;18.77;;;12.50;;
66870;SDS011;53780;44.998;9.926;2023-08-12T02:57:21;18.40;;;12.57;;
66870;SDS011;53780;44.998;9.926;2023-08-12T03:00:25;17.02;;;12.02;;
66870;SDS011;53780;44.998;9.926;2023-08-12T03:03:29;19.80;;;12.10;;
66870;SDS011;53780;44.998;9.926;2023-08-12T03:06:33;17.17;;;12.20;;
66870;SDS011;53780;44.998;9.926;2023-08-12T03:09:37;17.92;;;11.40;;
66870;SDS011;53780;44.998;9.926;2023-08-12T03:12:40;17.10;;;10.80;;
66870;SDS011;53780;44.998;9.926;2023-08-12T03:15:45;15.13;;;11.05;;
66870;SDS011;53780;44.998;9.926;2023-08-12T03:18:48;15.13;;;10.88;;
66870;SDS011;53780;44.998;9.926;2023-08-12T03:21:52;17.75;;;10.85;;
66870;SDS011;53780;44.998;9.926;2023-08-12T03:24:58;16.33;;;10.65;;
66870;SDS011;53780;44.998;9.926;2023-08-12T03:28:02;15.80;;;10.50;;
66870;SDS011;53780;44.998;9.926;2023-08-12T03:31:07;16.33;;;10.93;;
66870;SDS011;53780;44.998;9.926;2023-08-12T03:34:12;19.35;;;11.80;;
66870;SDS011;53780;44.998;9.926;2023-08-12T03:37:19;16.85;;;12.20;;
66870;SDS011;53780;44.998;9.926;2023-08-12T03:40:24;19.35;;;13.38;;
66870;SDS011;53780;44.998;9.926;2023-08-12T03:43:29;21.40;;;12.90;;
66870;SDS011;53780;44.998;9.926;2023-08-12T03:46:33;17.63;;;12.70;;
66870;SDS011;53780;44.998;9.926;2023-08-12T03:49:38;17.02;;;12.27;;
66870;SDS011;53780;44.998;9.926;2023-08-12T03:52:42;18.23;;;12.27;;
66870;SDS011;53780;44.998;9.926;2023-08-12T03:55:46;19.58;;;12.23;;
66870;SDS011;53780;44.998;9.926;2023-08-12T03:58:52;18.93;;;12.90;;
66870;SDS011;53780;44.998;9.926;2023-08-12T04:01:56;20.55;;;13.27;;
66870;SDS011;53780;44.998;9.926;2023-08-12T04:05:00;17.70;;;12.63;;
66870;SDS011;53780;44.998;9.926;2023-08-12T04:08:05;17.30;;;12.25;;
66870;SDS011;53780;44.998;9.926;2023-08-12T04:11:08;19.02;;;12.60;;
66870;SDS011;53780;44.998;9.926;2023-08-12T04:14:12;18.00;;;12.90;;
66870;SDS011;53780;44.998;9.926;2023-08-12T04:17:19;17.63;;;11.25;;
66870;SDS011;53780;44.998;9.926;2023-08-12T04:20:23;17.27;;;11.55;;
66870;SDS011;53780;44.998;9.926;2023-08-12T04:23:27;17.17;;;11.57;;
66870;SDS011;53780;44.998;9.926;2023-08-12T04:26:31;17.60;;;12.02;;
66870;SDS011;53780;44.998;9.926;2023-08-12T04:29:36;17.60;;;12.50;;
66870;SDS011;53780;44.998;9.926;2023-08-12T04:32:40;18.60;;;11.57;;
66870;SDS011;53780;44.998;9.926;2023-08-12T04:35:45;18.02;;;13.05;;
66870;SDS011;53780;44.998;9.926;2023-08-12T04:38:50;23.30;;;12.95;;
66870;SDS011;53780;44.998;9.926;2023-08-12T04:41:53;21.58;;;13.73;;
66870;SDS011;53780;44.998;9.926;2023-08-12T04:44:58;20.57;;;13.53;;
66870;SDS011;53780;44.998;9.926;2023-08-12T04:48:02;18.65;;;13.60;;
66870;SDS011;53780;44.998;9.926;2023-08-12T04:51:07;19.60;;;13.93;;
66870;SDS011;53780;44.998;9.926;2023-08-12T04:54:11;20.27;;;14.18;;
66870;SDS011;53780;44.998;9.926;2023-08-12T04:57:15;22.23;;;14.18;;
66870;SDS011;53780;44.998;9.926;2023-08-12T05:00:19;24.83;;;13.97;;
66870;SDS011;53780;44.998;9.926;2023-08-12T05:03:24;23.35;;;13.90;;
66870;SDS011;53780;44.998;9.926;2023-08-12T05:06:30;21.40;;;12.73;;
66870;SDS011;53780;44.998;9.926;2023-08-12T05:09:34;17.73;;;11.90;;
66870;SDS011;53780;44.998;9.926;2023-08-12T05:12:39;19.10;;;11.65;;
66870;SDS011;53780;44.998;9.926;2023-08-12T05:15:46;20.50;;;11.30;;
66870;SDS011;53780;44.998;9.926;2023-08-12T05:18:52;21.75;;;12.65;;
66870;SDS011;53780;44.998;9.926;2023-08-12T05:21:55;22.70;;;12.55;;
66870;SDS011;53780;44.998;9.926;2023-08-12T05:24:59;22.00;;;12.60;;
66870;SDS011;53780;44.998;9.926;2023-08-12T05:28:03;20.55;;;13.82;;
66870;SDS011;53780;44.998;9.926;2023-08-12T05:31:07;19.77;;;13.03;;
66870;SDS011;53780;44.998;9.926;2023-08-12T05:34:11;20.17;;;13.60;;
66870;SDS011;53780;44.998;9.926;2023-08-12T05:37:15;21.98;;;14.15;;
66870;SDS011;53780;44.998;9.926;2023-08-12T05:40:18;19.95;;;13.30;;
66870;SDS011;53780;44.998;9.926;2023-08-12T05:43:22;19.40;;;13.73;;
66870;SDS011;53780;44.998;9.926;2023-08-12T05:46:26;22.90;;;13.13;;
66870;SDS011;53780;44.998;9.926;2023-08-12T05:49:29;20.63;;;13.00;;
66870;SDS011;53780;44.998;9.926;2023-08-12T05:52:33;19.10;;;12.90;;
66870;SDS011;53780;44.998;9.926;2023-08-12T05:55:37;16.73;;;12.60;;
66870;SDS011;53780;44.998;9.926;2023-08-12T05:58:41;19.42;;;12.70;;
66870;SDS011;53780;44.998;9.926;2023-08-12T06:01:45;14.83;;;10.57;;
66870;SDS011;53780;44.998;9.926;2023-08-12T06:04:48;16.08;;;10.35;;
66870;SDS011;53780;44.998;9.926;2023-08-12T06:07:52;15.80;;;9.70;;
66870;SDS011;53780;44.998;9.926;2023-08-12T06:10:56;16.65;;;10.10;;
66870;SDS011;53780;44.998;9.926;2023-08-12T06:14:00;14.88;;;9.90;;
66870;SDS011;53780;44.998;9.926;2023-08-12T06:17:04;13.33;;;9.20;;
66870;SDS011;53780;44.998;9.926;2023-08-12T06:20:08;12.80;;;9.30;;
66870;SDS011;53780;44.998;9.926;2023-08-12T06:23:12;13.48;;;9.45;;
66870;SDS011;53780;44.998;9.926;2023-08-12T06:26:15;13.07;;;9.43;;
66870;SDS011;53780;44.998;9.926;2023-08-12T06:29:19;15.73;;;9.45;;
66870;SDS011;53780;44.998;9.926;2023-08-12T06:32:23;13.57;;;9.20;;
66870;SDS011;53780;44.998;9.926;2023-08-12T06:35:27;14.30;;;9.68;;
66870;SDS011;53780;44.998;9.926;2023-08-12T06:38:31;14.23;;;9.43;;
66870;SDS011;53780;44.998;9.926;2023-08-12T06:41:34;13.57;;;9.73;;
66870;SDS011;53780;44.998;9.926;2023-08-12T06:44:38;13.52;;;8.82;;
66870;SDS011;53780;44.998;9.926;2023-08-12T06:47:42;13.57;;;8.73;;
66870;SDS011;53780;44.998;9.926;2023-08-12T06:50:46;14.40;;;9.25;;
66870;SDS011;53780;44.998;9.926;2023-08-12T06:53:56;13.15;;;8.85;;
66870;SDS011;53780;44.998;9.926;2023-08-12T06:57:00;12.43;;;7.75;;
66870;SDS011;53780;44.998;9.926;2023-08-12T07:00:04;13.50;;;9.40;;
66870;SDS011;53780;44.998;9.926;2023-08-12T07:03:08;13.63;;;8.50;;
66870;SDS011;53780;44.998;9.926;2023-08-12T07:06:12;12.30;;;9.27;;
66870;SDS011;53780;44.998;9.926;2023-08-12T07:09:16;10.75;;;7.47;;
66870;SDS011;53780;44.998;9.926;2023-08-12T07:12:22;11.60;;;8.20;;
66870;SDS011;53780;44.998;9.926;2023-08-12T07:15:26;18.35;;;8.35;;
66870;SDS011;53780;44.998;9.926;2023-08-12T07:18:30;13.70;;;8.97;;
66870;SDS011;53780;44.998;9.926;2023-08-12T07:21:34;12.18;;;7.70;;
66870;SDS011;53780;44.998;9.926;2023-08-12T07:24:38;12.13;;;8.20;;
66870;SDS011;53780;44.998;9.926;2023-08-12T07:27:42;12.85;;;8.25;;
66870;SDS011;53780;44.998;9.926;2023-08-12T07:30:45;11.55;;;7.13;;
66870;SDS011;53780;44.998;9.926;2023-08-12T07:33:49;9.40;;;7.03;;
66870;SDS011;53780;44.998;9.926;2023-08-12T07:36:53;10.90;;;7.38;;
66870;SDS011;53780;44.998;9.926;2023-08-12T07:39:57;12.43;;;7.13;;
66870;SDS011;53780;44.998;9.926;2023-08-12T07:43:01;10.13;;;7.32;;
66870;SDS011;53780;44.998;9.926;2023-08-12T07:46:05;9.73;;;7.63;;
66870;SDS011;53780;44.998;9.926;2023-08-12T07:49:09;10.17;;;6.73;;
66870;SDS011;53780;44.998;9.926;2023-08-12T07:52:14;9.25;;;6.68;;
66870;SDS011;53780;44.998;9.926;2023-08-12T07:55:20;11.07;;;7.00;;
66870;SDS011;53780;44.998;9.926;2023-08-12T07:58:24;11.52;;;7.25;;
66870;SDS011;53780;44.998;9.926;2023-08-12T08:01:28;11.50;;;7.80;;
66870;SDS011;53780;44.998;9.926;2023-08-12T08:04:31;10.47;;;6.93;;
66870;SDS011;53780;44.998;9.926;2023-08-12T08:07:36;10.15;;;6.20;;
66870;SDS011;53780;44.998;9.926;2023-08-12T08:10:40;12.30;;;6.82;;
66870;SDS011;53780;44.998;9.926;2023-08-12T08:13:44;11.15;;;7.13;;
66870;SDS011;53780;44.998;9.926;2023-08-12T08:16:48;10.82;;;6.57;;
66870;SDS011;53780;44.998;9.926;2023-08-12T08:19:52;11.27;;;7.03;;
66870;SDS011;53780;44.998;9.926;2023-08-12T08:22:55;11.25;;;7.00;;
66870;SDS011;53780;44.998;9.926;2023-08-12T08:26:02;10.95;;;6.40;;
66870;SDS011;53780;44.998;9.926;2023-08-12T08:29:06;8.98;;;6.43;;
66870;SDS011;53780;44.998;9.926;2023-08-12T08:32:10;7.85;;;5.03;;
66870;SDS011;53780;44.998;9.926;2023-08-12T08:35:14;11.23;;;6.53;;
66870;SDS011;53780;44.998;9.926;2023-08-12T08:38:18;6.93;;;5.57;;
66870;SDS011;53780;44.998;9.926;2023-08-12T08:41:22;9.70;;;5.97;;
66870;SDS011;53780;44.998;9.926;2023-08-12T08:44:28;10.40;;;5.68;;
66870;SDS011;53780;44.998;9.926;2023-08-12T08:47:36;12.25;;;6.50;;
66870;SDS011;53780;44.998;9.926;2023-08-12T08:50:40;10.60;;;6.70;;
66870;SDS011;53780;44.998;9.926;2023-08-12T08:53:45;10.02;;;7.13;;
66870;SDS011;53780;44.998;9.926;2023-08-12T08:56:49;9.30;;;5.68;;
66870;SDS011;53780;44.998;9.926;2023-08-12T08:59:53;7.90;;;5.00;;
66870;SDS011;53780;44.998;9.926;2023-08-12T09:02:57;9.07;;;4.88;;
66870;SDS011;53780;44.998;9.926;2023-08-12T09:06:01;7.77;;;4.37;;
66870;SDS011;53780;44.998;9.926;2023-08-12T09:09:10;8.65;;;4.18;;
66870;SDS011;53780;44.998;9.926;2023-08-12T09:12:16;8.43;;;4.80;;
66870;SDS011;53780;44.998;9.926;2023-08-12T09:15:20;8.48;;;4.60;;
66870;SDS011;53780;44.998;9.926;2023-08-12T09:18:26;8.57;;;5.55;;
66870;SDS011;53780;44.998;9.926;2023-08-12T09:21:29;8.80;;;4.57;;
66870;SDS011;53780;44.998;9.926;2023-08-12T09:24:33;12.20;;;5.88;;
66870;SDS011;53780;44.998;9.926;2023-08-12T09:27:37;8.27;;;3.78;;
66870;SDS011;53780;44.998;9.926;2023-08-12T09:30:42;6.45;;;3.78;;
66870;SDS011;53780;44.998;9.926;2023-08-12T09:33:45;5.85;;;3.10;;
66870;SDS011;53780;44.998;9.926;2023-08-12T09:36:49;5.37;;;3.47;;
66870;SDS011;53780;44.998;9.926;2023-08-12T09:39:53;5.50;;;3.33;;
66870;SDS011;53780;44.998;9.926;2023-08-12T09:42:58;6.47;;;3.67;;
66870;SDS011;53780;44.998;9.926;2023-08-12T09:46:02;9.18;;;3.58;;
66870;SDS011;53780;44.998;9.926;2023-08-12T09:49:06;5.10;;;3.10;;
66870;SDS011;53780;44.998;9.926;2023-08-12T09:52:10;7.67;;;3.23;;
66870;SDS011;53780;44.998;9.926;2023-08-12T09:55:16;7.80;;;3.38;;
66870;SDS011;53780;44.998;9.926;2023-08-12T09:58:21;6.45;;;3.05;;
66870;SDS011;53780;44.998;9.926;2023-08-12T10:01:28;8.63;;;3.35;;
66870;SDS011;53780;44.998;9.926;2023-08-12T10:04:34;5.60;;;3.13;;
66870;SDS011;53780;44.998;9.926;2023-08-12T10:07:43;6.60;;;4.10;;
66870;SDS011;53780;44.998;9.926;2023-08-12T10:10:49;6.22;;;3.60;;
66870;SDS011;53780;44.998;9.926;2023-08-12T10:13:53;7.72;;;3.50;;
66870;SDS011;53780;44.998;9.926;2023-08-12T10:16:57;6.30;;;3.42;;
66870;SDS011;53780;44.998;9.926;2023-08-12T10:20:03;7.10;;;3.90;;
66870;SDS011;53780;44.998;9.926;2023-08-12T10:23:08;6.67;;;3.10;;
66870;SDS011;53780;44.998;9.926;2023-08-12T10:26:17;5.57;;;2.90;;
66870;SDS011;53780;44.998;9.926;2023-08-12T10:29:25;5.60;;;2.80;;
66870;SDS011;53780;44.998;9.926;2023-08-12T10:32:30;6.22;;;2.80;;
66870;SDS011;53780;44.998;9.926;2023-08-12T10:35:48;5.57;;;3.33;;
66870;SDS011;53780;44.998;9.926;2023-08-12T10:38:53;6.57;;;3.20;;
66870;SDS011;53780;44.998;9.926;2023-08-12T10:41:57;6.70;;;3.03;;
66870;SDS011;53780;44.998;9.926;2023-08-12T10:45:03;6.80;;;2.70;;
66870;SDS011;53780;44.998;9.926;2023-08-12T10:48:22;6.68;;;2.72;;
66870;SDS011;53780;44.998;9.926;2023-08-12T10:54:50;6.63;;;3.20;;
66870;SDS011;53780;44.998;9.926;2023-08-12T10:57:57;6.65;;;2.90;;
66870;SDS011;53780;44.998;9.926;2023-08-12T11:01:01;5.68;;;2.90;;
66870;SDS011;53780;44.998;9.926;2023-08-12T11:04:16;8.00;;;3.10;;
66870;SDS011;53780;44.998;9.926;2023-08-12T11:07:27;6.45;;;3.50;;
66870;SDS011;53780;44.998;9.926;2023-08-12T11:10:36;6.17;;;3.43;;
66870;SDS011;53780;44.998;9.926;2023-08-12T11:13:46;5.93;;;3.78;;
66870;SDS011;53780;44.998;9.926;2023-08-12T11:16:56;7.15;;;3.28;;
66870;SDS011;53780;44.998;9.926;2023-08-12T11:20:01;4.93;;;3.00;;
66870;SDS011;53780;44.998;9.926;2023-08-12T11:23:09;5.45;;;3.67;;
66870;SDS011;53780;44.998;9.926;2023-08-12T11:26:14;6.07;;;3.07;;
66870;SDS011;53780;44.998;9.926;2023-08-12T11:29:17;5.72;;;3.00;;
66870;SDS011;53780;44.998;9.926;2023-08-12T11:32:21;6.97;;;3.20;;
66870;SDS011;53780;44.998;9.926;2023-08-12T11:35:25;6.28;;;3.50;;
66870;SDS011;53780;44.998;9.926;2023-08-12T11:38:31;7.70;;;3.40;;
66870;SDS011;53780;44.998;9.926;2023-08-12T11:41:35;7.30;;;3.10;;
66870;SDS011;53780;44.998;9.926;2023-08-12T11:44:42;6.32;;;3.15;;
66870;SDS011;53780;44.998;9.926;2023-08-12T11:47:46;5.63;;;3.10;;
66870;SDS011;53780;44.998;9.926;2023-08-12T11:50:56;6.53;;;3.00;;
66870;SDS011;53780;44.998;9.926;2023-08-12T11:54:01;6.05;;;3.03;;
66870;SDS011;53780;44.998;9.926;2023-08-12T11:57:05;5.40;;;3.30;;
66870;SDS011;53780;44.998;9.926;2023-08-12T12:00:10;5.25;;;3.10;;
66870;SDS011;53780;44.998;9.926;2023-08-12T12:03:18;6.18;;;3.00;;
66870;SDS011;53780;44.998;9.926;2023-08-12T12:06:32;6.85;;;3.35;;
66870;SDS011;53780;44.998;9.926;2023-08-12T12:09:42;6.15;;;3.35;;
66870;SDS011;53780;44.998;9.926;2023-08-12T12:12:47;5.03;;;2.67;;
66870;SDS011;53780;44.998;9.926;2023-08-12T12:15:52;5.57;;;3.28;;
66870;SDS011;53780;44.998;9.926;2023-08-12T12:18:59;8.75;;;3.08;;
66870;SDS011;53780;44.998;9.926;2023-08-12T12:22:03;8.05;;;3.17;;
66870;SDS011;53780;44.998;9.926;2023-08-12T12:25:10;7.35;;;3.80;;
66870;SDS011;53780;44.998;9.926;2023-08-12T12:28:18;6.63;;;3.20;;
66870;SDS011;53780;44.998;9.926;2023-08-12T12:31:21;5.65;;;3.22;;
66870;SDS011;53780;44.998;9.926;2023-08-12T12:34:25;5.32;;;3.38;;
66870;SDS011;53780;44.998;9.926;2023-08-12T12:37:29;4.35;;;2.72;;
66870;SDS011;53780;44.998;9.926;2023-08-12T12:40:33;6.28;;;3.30;;
66870;SDS011;53780;44.998;9.926;2023-08-12T12:43:37;4.60;;;3.50;;
66870;SDS011;53780;44.998;9.926;2023-08-12T12:46:41;6.95;;;3.30;;
66870;SDS011;53780;44.998;9.926;2023-08-12T12:49:45;7.38;;;3.30;;
66870;SDS011;53780;44.998;9.926;2023-08-12T12:52:49;6.00;;;3.40;;
66870;SDS011;53780;44.998;9.926;2023-08-12T12:55:53;5.57;;;2.80;;
66870;SDS011;53780;44.998;9.926;2023-08-12T12:58:57;5.50;;;3.40;;
66870;SDS011;53780;44.998;9.926;2023-08-12T13:02:01;8.82;;;3.20;;
66870;SDS011;53780;44.998;9.926;2023-08-12T13:05:05;4.07;;;2.75;;
66870;SDS011;53780;44.998;9.926;2023-08-12T13:08:08;5.63;;;3.45;;
66870;SDS011;53780;44.998;9.926;2023-08-12T13:11:12;5.60;;;2.90;;
66870;SDS011;53780;44.998;9.926;2023-08-12T13:14:16;6.40;;;3.37;;
66870;SDS011;53780;44.998;9.926;2023-08-12T13:17:23;5.57;;;3.33;;
66870;SDS011;53780;44.998;9.926;2023-08-12T13:20:27;6.88;;;3.33;;
66870;SDS011;53780;44.998;9.926;2023-08-12T13:23:31;6.60;;;3.15;;
66870;SDS011;53780;44.998;9.926;2023-08-12T13:26:35;7.38;;;3.10;;
66870;SDS011;53780;44.998;9.926;2023-08-12T13:29:39;5.57;;;3.40;;
66870;SDS011;53780;44.998;9.926;2023-08-12T13:32:42;6.25;;;3.50;;
66870;SDS011;53780;44.998;9.926;2023-08-12T13:35:46;7.55;;;3.35;;
66870;SDS011;53780;44.998;9.926;2023-08-12T13:38:50;6.78;;;3.30;;
66870;SDS011;53780;44.998;9.926;2023-08-12T13:41:54;7.20;;;3.20;;
66870;SDS011;53780;44.998;9.926;2023-08-12T13:44:58;7.57;;;3.63;;
66870;SDS011;53780;44.998;9.926;2023-08-12T13:48:02;7.28;;;3.30;;
66870;SDS011;53780;44.998;9.926;2023-08-12T13:51:06;6.80;;;3.60;;
66870;SDS011;53780;44.998;9.926;2023-08-12T13:54:10;6.68;;;3.42;;
66870;SDS011;53780;44.998;9.926;2023-08-12T13:57:14;10.05;;;3.45;;
66870;SDS011;53780;44.998;9.926;2023-08-12T14:00:17;7.80;;;3.27;;
66870;SDS011;53780;44.998;9.926;2023-08-12T14:03:22;6.82;;;3.30;;
66870;SDS011;53780;44.998;9.926;2023-08-12T14:06:25;6.47;;;3.30;;
66870;SDS011;53780;44.998;9.926;2023-08-12T14:09:29;5.65;;;3.22;;
66870;SDS011;53780;44.998;9.926;2023-08-12T14:12:33;7.00;;;3.42;;
66870;SDS011;53780;44.998;9.926;2023-08-12T14:15:37;5.67;;;3.40;;
66870;SDS011;53780;44.998;9.926;2023-08-12T14:18:40;8.63;;;3.47;;
66870;SDS011;53780;44.998;9.926;2023-08-12T14:21:44;5.85;;;3.13;;
66870;SDS011;53780;44.998;9.926;2023-08-12T14:24:48;6.35;;;3.40;;
66870;SDS011;53780;44.998;9.926;2023-08-12T14:27:52;5.95;;;3.40;;
66870;SDS011;53780;44.998;9.926;2023-08-12T14:30:55;5.90;;;3.40;;
66870;SDS011;53780;44.998;9.926;2023-08-12T14:33:59;5.93;;;3.53;;
66870;SDS011;53780;44.998;9.926;2023-08-12T14:37:04;6.93;;;3.58;;
66870;SDS011;53780;44.998;9.926;2023-08-12T14:40:09;7.80;;;3.63;;
66870;SDS011;53780;44.998;9.926;2023-08-12T14:43:13;6.45;;;3.47;;
66870;SDS011;53780;44.998;9.926;2023-08-12T14:46:17;9.43;;;3.67;;
66870;SDS011;53780;44.998;9.926;2023-08-12T14:49:20;7.38;;;3.83;;
66870;SDS011;53780;44.998;9.926;2023-08-12T14:52:24;8.27;;;3.60;;
66870;SDS011;53780;44.998;9.926;2023-08-12T14:55:28;6.45;;;3.58;;
66870;SDS011;53780;44.998;9.926;2023-08-12T14:58:32;7.90;;;3.70;;
66870;SDS011;53780;44.998;9.926;2023-08-12T15:01:36;6.03;;;3.30;;
66870;SDS011;53780;44.998;9.926;2023-08-12T15:04:39;6.97;;;3.70;;
66870;SDS011;53780;44.998;9.926;2023-08-12T15:07:44;6.38;;;3.45;;
66870;SDS011;53780;44.998;9.926;2023-08-12T15:10:47;5.72;;;3.58;;
66870;SDS011;53780;44.998;9.926;2023-08-12T15:13:51;6.50;;;3.42;;
66870;SDS011;53780;44.998;9.926;2023-08-12T15:16:55;9.17;;;3.50;;
66870;SDS011;53780;44.998;9.926;2023-08-12T15:19:58;5.28;;;3.20;;
66870;SDS011;53780;44.998;9.926;2023-08-12T15:23:02;6.57;;;3.70;;
66870;SDS011;53780;44.998;9.926;2023-08-12T15:26:06;6.22;;;3.40;;
66870;SDS011;53780;44.998;9.926;2023-08-12T15:29:10;5.88;;;3.90;;
66870;SDS011;53780;44.998;9.926;2023-08-12T15:32:13;7.00;;;3.50;;
66870;SDS011;53780;44.998;9.926;2023-08-12T15:35:17;6.68;;;3.88;;
66870;SDS011;53780;44.998;9.926;2023-08-12T15:38:21;6.00;;;3.80;;
66870;SDS011;53780;44.998;9.926;2023-08-12T15:41:25;7.68;;;4.30;;
66870;SDS011;53780;44.998;9.926;2023-08-12T15:44:28;6.40;;;3.90;;
66870;SDS011;53780;44.998;9.926;2023-08-12T15:47:32;8.30;;;4.13;;
66870;SDS011;53780;44.998;9.926;2023-08-12T15:50:37;7.38;;;4.15;;
66870;SDS011;53780;44.998;9.926;2023-08-12T15:53:40;5.95;;;3.67;;
66870;SDS011;53780;44.998;9.926;2023-08-12T15:56:44;7.28;;;4.13;;
66870;SDS011;53780;44.998;9.926;2023-08-12T15:59:48;6.47;;;3.60;;
66870;SDS011;53780;44.998;9.926;2023-08-12T16:02:52;9.37;;;4.10;;
66870;SDS011;53780;44.998;9.926;2023-08-12T16:05:56;8.50;;;3.92;;
66870;SDS011;53780;44.998;9.926;2023-08-12T16:09:04;7.50;;;3.75;;
66870;SDS011;53780;44.998;9.926;2023-08-12T16:12:08;6.93;;;3.97;;
66870;SDS011;53780;44.998;9.926;2023-08-12T16:15:11;7.55;;;4.05;;
66870;SDS011;53780;44.998;9.926;2023-08-12T16:18:15;5.60;;;3.50;;
66870;SDS011;53780;44.998;9.926;2023-08-12T16:21:20;7.60;;;3.85;;
66870;SDS011;53780;44.998;9.926;2023-08-12T16:24:24;11.13;;;3.95;;
66870;SDS011;53780;44.998;9.926;2023-08-12T16:27:27;7.13;;;4.00;;
66870;SDS011;53780;44.998;9.926;2023-08-12T16:30:31;8.63;;;3.90;;
66870;SDS011;53780;44.998;9.926;2023-08-12T16:33:35;7.00;;;4.10;;
66870;SDS011;53780;44.998;9.926;2023-08-12T16:36:39;8.23;;;4.25;;
66870;SDS011;53780;44.998;9.926;2023-08-12T16:39:43;6.57;;;3.70;;
66870;SDS011;53780;44.998;9.926;2023-08-12T16:42:47;6.20;;;3.63;;
66870;SDS011;53780;44.998;9.926;2023-08-12T16:45:50;6.75;;;3.75;;
66870;SDS011;53780;44.998;9.926;2023-08-12T16:48:54;7.87;;;3.60;;
66870;SDS011;53780;44.998;9.926;2023-08-12T16:51:58;6.80;;;3.63;;
66870;SDS011;53780;44.998;9.926;2023-08-12T16:55:02;10.27;;;3.95;;
66870;SDS011;53780;44.998;9.926;2023-08-12T16:58:07;7.32;;;3.78;;
66870;SDS011;53780;44.998;9.926;2023-08-12T17:01:11;7.85;;;3.90;;
66870;SDS011;53780;44.998;9.926;2023-08-12T17:04:14;6.67;;;4.10;;
66870;SDS011;53780;44.998;9.926;2023-08-12T17:07:18;8.00;;;3.70;;
66870;SDS011;53780;44.998;9.926;2023-08-12T17:10:22;7.18;;;3.97;;
66870;SDS011;53780;44.998;9.926;2023-08-12T17:13:26;6.93;;;4.13;;
66870;SDS011;53780;44.998;9.926;2023-08-12T17:16:30;10.20;;;4.25;;
66870;SDS011;53780;44.998;9.926;2023-08-12T17:19:34;5.87;;;4.20;;
66870;SDS011;53780;44.998;9.926;2023-08-12T17:22:39;10.57;;;5.85;;
66870;SDS011;53780;44.998;9.926;2023-08-12T17:25:43;9.48;;;5.63;;
66870;SDS011;53780;44.998;9.926;2023-08-12T17:28:47;15.10;;;8.50;;
66870;SDS011;53780;44.998;9.926;2023-08-12T17:31:50;17.80;;;10.15;;
66870;SDS011;53780;44.998;9.926;2023-08-12T17:34:54;14.43;;;8.30;;
66870;SDS011;53780;44.998;9.926;2023-08-12T17:37:58;16.45;;;8.70;;
66870;SDS011;53780;44.998;9.926;2023-08-12T17:41:02;14.75;;;7.82;;
66870;SDS011;53780;44.998;9.926;2023-08-12T17:44:05;13.75;;;7.25;;
66870;SDS011;53780;44.998;9.926;2023-08-12T17:47:09;11.43;;;7.00;;
66870;SDS011;53780;44.998;9.926;2023-08-12T17:50:15;13.07;;;5.87;;
66870;SDS011;53780;44.998;9.926;2023-08-12T17:53:19;10.95;;;5.57;;
66870;SDS011;53780;44.998;9.926;2023-08-12T17:56:23;9.32;;;5.30;;
66870;SDS011;53780;44.998;9.926;2023-08-12T17:59:26;10.52;;;4.80;;
66870;SDS011;53780;44.998;9.926;2023-08-12T18:02:30;12.35;;;5.63;;
66870;SDS011;53780;44.998;9.926;2023-08-12T18:05:34;11.37;;;4.70;;
66870;SDS011;53780;44.998;9.926;2023-08-12T18:08:38;11.55;;;4.38;;
66870;SDS011;53780;44.998;9.926;2023-08-12T18:11:42;9.80;;;4.55;;
66870;SDS011;53780;44.998;9.926;2023-08-12T18:14:45;11.55;;;4.00;;
66870;SDS011;53780;44.998;9.926;2023-08-12T18:17:49;10.35;;;4.13;;
66870;SDS011;53780;44.998;9.926;2023-08-12T18:20:54;12.90;;;4.30;;
66870;SDS011;53780;44.998;9.926;2023-08-12T18:23:58;9.93;;;4.40;;